Time;durP1;ratioP1;P1;durP2;ratioP2;P2;SDS_P1;SDS_P2;PMS_P1;PMS_P2;Temp;Humidity;BMP_temperature;BMP_pressure;BME280_temperature;BME280_humidity;BME280_pressure;Samples;Min_cycle;Max_cycle;Signal;HPM_P1;HPM_P2
2022/01/12 00:02:01;;;;;;;;;;;0.00;99.90;;;;;;6163509;23;20172;-75
2022/01/12 00:04:26;;;;;;;;;;;0.00;99.90;;;;;;6164097;23;19897;-76
2022/01/12 00:06:52;;;;;;;;;;;0.00;99.90;;;;;;6164163;23;20207;-76
2022/01/12 00:09:18;;;;;;;;;;;0.10;99.90;;;;;;6164843;23;19923;-75
2022/01/12 00:11:43;;;;;;;;;;;0.10;99.90;;;;;;6164494;23;19904;-77
2022/01/12 00:14:09;;;;;;;;;;;0.10;99.90;;;;;;6163087;23;19904;-75
2022/01/12 00:16:35;;;;;;;;;;;0.10;99.90;;;;;;6164196;23;20113;-76
2022/01/12 00:19:01;;;;;;;;;;;0.20;99.90;;;;;;6159583;23;19924;-76
2022/01/12 00:21:27;;;;;;;;;;;0.20;99.90;;;;;;6110345;23;19924;-74
2022/01/12 00:23:52;;;;;;;;;;;0.20;99.90;;;;;;6109656;23;20183;-75
2022/01/12 00:34:38;;;;;;;;;;;0.10;99.90;;;;;;6135298;23;19904;-79
2022/01/12 00:37:04;;;;;;;;;;;0.10;99.90;;;;;;6109406;23;19921;-82
2022/01/12 00:39:29;;;;;;;;;;;0.10;99.90;;;;;;6109957;23;19956;-79
2022/01/12 00:41:55;;;;;;;;;;;0.00;99.90;;;;;;6136049;23;19925;-80
2022/01/12 00:44:31;;;;;;;;;;;0.00;99.90;;;;;;6135258;23;19905;-75
2022/01/12 00:46:56;;;;;;;;;;;0.10;99.90;;;;;;6109640;23;19897;-77
2022/01/12 00:49:22;;;;;;;;;;;0.10;99.90;;;;;;6108612;23;20223;-75
2022/01/12 00:51:50;;;;;;;;;;;0.10;99.90;;;;;;6135332;23;19897;-75
2022/01/12 00:54:16;;;;;;;;;;;0.10;99.90;;;;;;6134603;23;19905;-76
2022/01/12 00:56:42;;;;;;;;;;;0.00;99.90;;;;;;6109187;23;19913;-79
2022/01/12 00:59:08;;;;;;;;;;;0.00;99.90;;;;;;6109086;23;19897;-79
2022/01/12 01:01:34;;;;;;;;;;;-0.10;99.90;;;;;;6109727;23;19896;-83
2022/01/12 01:04:01;;;;;;;;;;;-0.10;99.90;;;;;;6109131;23;20045;-82
2022/01/12 01:06:27;;;;;;;;;;;-0.10;99.90;;;;;;6135860;23;19897;-83
2022/01/12 01:08:53;;;;;;;;;;;-0.10;99.90;;;;;;6109596;23;19912;-82
2022/01/12 01:11:19;;;;;;;;;;;-0.10;99.90;;;;;;6108584;23;20092;-80
2022/01/12 01:13:57;;;;;;;;;;;-0.20;99.90;;;;;;6109892;23;19912;-82
2022/01/12 01:27:09;;;;;;;;;;;-0.20;99.90;;;;;;6133895;23;19957;-82
2022/01/12 01:29:34;;;;;;;;;;;-0.20;99.90;;;;;;6109467;23;19905;-82
2022/01/12 01:32:00;;;;;;;;;;;-0.20;99.90;;;;;;6108420;23;19897;-80
2022/01/12 01:34:27;;;;;;;;;;;-0.30;99.90;;;;;;6108820;23;19905;-76
2022/01/12 01:36:54;;;;;;;;;;;-0.30;99.90;;;;;;6134609;23;19896;-80
2022/01/12 01:39:24;;;;;;;;;;;-0.20;99.90;;;;;;6107904;23;20279;-81
2022/01/12 01:41:52;;;;;;;;;;;-0.20;99.90;;;;;;6108624;23;19904;-81
2022/01/12 01:55:08;;;;;;;;;;;-0.20;99.90;;;;;;6134355;23;19956;-68
2022/01/12 01:57:34;;;;;;;;;;;-0.10;99.90;;;;;;6134402;23;19897;-68
2022/01/12 02:00:00;;;;;;;;;;;-0.10;99.90;;;;;;6133701;23;19904;-67
2022/01/12 02:02:26;;;;;;;;;;;-0.20;99.90;;;;;;6134278;23;19903;-67
2022/01/12 02:04:51;;;;;;;;;;;-0.20;99.90;;;;;;6135393;23;19904;-67
2022/01/12 02:07:17;;;;;;;;;;;-0.10;99.90;;;;;;6134330;23;19917;-69
2022/01/12 02:09:42;;;;;;;;;;;-0.20;99.90;;;;;;6134907;23;19910;-68
2022/01/12 02:12:08;;;;;;;;;;;-0.30;99.90;;;;;;6135371;23;19896;-69
2022/01/12 02:14:34;;;;;;;;;;;-0.30;99.90;;;;;;6109745;23;19935;-68
2022/01/12 02:17:06;;;;;;;;;;;-0.30;99.90;;;;;;6135545;23;19897;-69
2022/01/12 02:19:52;;;;;;;;;;;-0.20;99.90;;;;;;6134908;23;19971;-68
2022/01/12 02:36:17;;;;;;;;;;;-0.20;99.90;;;;;;6135015;23;19939;-67
2022/01/12 02:41:27;;;;;;;;;;;-0.30;99.90;;;;;;6134668;23;19904;-68
2022/01/12 02:54:51;;;;;;;;;;;-0.40;99.90;;;;;;6145010;23;19903;-67
2022/01/12 02:57:17;;;;;;;;;;;-0.40;99.90;;;;;;6135029;23;19897;-67
2022/01/12 03:00:03;;;;;;;;;;;-0.40;99.90;;;;;;6138645;23;19904;-67
2022/01/12 03:02:33;;;;;;;;;;;-0.40;99.90;;;;;;6137988;23;19904;-67
2022/01/12 03:07:31;;;;;;;;;;;-0.40;99.90;;;;;;6138107;23;20022;-68
2022/01/12 03:09:57;;;;;;;;;;;-0.40;99.90;;;;;;6112521;23;19912;-68
2022/01/12 03:12:23;;;;;;;;;;;-0.40;99.90;;;;;;6138153;23;20094;-69
2022/01/12 03:14:48;;;;;;;;;;;-0.30;99.90;;;;;;6138520;23;20200;-69
2022/01/12 03:17:15;;;;;;;;;;;-0.30;99.90;;;;;;6134448;23;19924;-68
2022/01/12 03:19:42;;;;;;;;;;;-0.30;99.90;;;;;;6135039;23;19960;-68
2022/01/12 03:22:07;;;;;;;;;;;-0.40;99.90;;;;;;6133815;23;19897;-68
2022/01/12 03:24:33;;;;;;;;;;;-0.40;99.90;;;;;;6108233;23;19897;-68
2022/01/12 03:26:58;;;;;;;;;;;-0.50;99.90;;;;;;6133988;23;19897;-67
2022/01/12 03:29:24;;;;;;;;;;;-0.50;99.90;;;;;;6133586;23;19905;-69
2022/01/12 03:31:50;;;;;;;;;;;-0.50;99.90;;;;;;6134144;23;19896;-69
2022/01/12 03:34:26;;;;;;;;;;;-0.50;99.90;;;;;;6134038;23;19903;-67
2022/01/12 03:39:36;;;;;;;;;;;-0.60;99.90;;;;;;6134305;23;20206;-68
2022/01/12 03:42:02;;;;;;;;;;;-0.50;99.90;;;;;;6134238;23;19904;-69
2022/01/12 03:44:27;;;;;;;;;;;-0.50;99.90;;;;;;6107467;23;19971;-67
2022/01/12 03:46:53;;;;;;;;;;;-0.60;99.90;;;;;;6135395;23;19904;-68
2022/01/12 03:49:20;;;;;;;;;;;-0.60;99.90;;;;;;6137084;23;19898;-67
2022/01/12 03:51:46;;;;;;;;;;;-0.70;99.90;;;;;;6137931;23;20065;-68
2022/01/12 03:54:12;;;;;;;;;;;-0.70;99.90;;;;;;6111906;23;19897;-68
2022/01/12 03:56:37;;;;;;;;;;;-0.80;99.90;;;;;;6137904;23;19897;-68
2022/01/12 03:59:03;;;;;;;;;;;-0.70;99.90;;;;;;6138701;23;20184;-70
2022/01/12 04:01:29;;;;;;;;;;;-0.70;99.90;;;;;;6137750;23;19904;-70
2022/01/12 04:04:01;;;;;;;;;;;-0.80;99.90;;;;;;6138485;23;19896;-69
2022/01/12 04:09:11;;;;;;;;;;;-0.80;99.90;;;;;;6136762;23;19960;-69
2022/01/12 04:11:37;;;;;;;;;;;-0.80;99.90;;;;;;6111342;23;19901;-69
2022/01/12 04:14:04;;;;;;;;;;;-0.80;99.90;;;;;;6137309;23;20169;-69
2022/01/12 04:16:30;;;;;;;;;;;-0.80;99.90;;;;;;6136558;23;19904;-69
2022/01/12 04:18:55;;;;;;;;;;;-0.80;99.90;;;;;;6137090;23;19897;-70
2022/01/12 04:21:27;;;;;;;;;;;-0.80;99.90;;;;;;6136375;23;19960;-69
2022/01/12 04:23:53;;;;;;;;;;;-0.70;99.90;;;;;;6111385;23;20132;-69
2022/01/12 04:26:19;;;;;;;;;;;-0.70;99.90;;;;;;6136275;23;20198;-68
2022/01/12 04:28:45;;;;;;;;;;;-0.70;99.90;;;;;;6136746;23;19897;-69
2022/01/12 04:31:11;;;;;;;;;;;-0.80;99.90;;;;;;6135998;23;20207;-67
2022/01/12 04:33:37;;;;;;;;;;;-0.80;99.90;;;;;;6111146;23;19916;-69
2022/01/12 04:36:04;;;;;;;;;;;-0.80;99.90;;;;;;6111120;23;20136;-69
2022/01/12 04:38:33;;;;;;;;;;;-0.80;99.90;;;;;;6110321;23;19905;-67
2022/01/12 04:40:59;;;;;;;;;;;-0.80;99.90;;;;;;6137006;23;19897;-68
2022/01/12 04:43:25;;;;;;;;;;;-0.90;99.90;;;;;;6110188;23;20105;-68
2022/01/12 04:50:49;;;;;;;;;;;-0.80;99.90;;;;;;6136844;23;19952;-68
2022/01/12 04:53:16;;;;;;;;;;;-0.80;99.90;;;;;;6132850;23;19908;-67
2022/01/12 04:55:42;;;;;;;;;;;-0.80;99.90;;;;;;6133091;23;19896;-67
2022/01/12 04:58:08;;;;;;;;;;;-0.80;99.90;;;;;;6131893;23;19956;-68
2022/01/12 05:00:34;;;;;;;;;;;-0.80;99.90;;;;;;6105473;23;19948;-68
2022/01/12 05:13:40;;;;;;;;;;;-0.90;99.90;;;;;;6136541;23;19943;-70
2022/01/12 05:16:06;;;;;;;;;;;-0.90;99.90;;;;;;6110948;23;20183;-70
2022/01/12 05:18:32;;;;;;;;;;;-0.90;99.90;;;;;;6135710;23;19904;-69
2022/01/12 05:20:58;;;;;;;;;;;-1.00;99.90;;;;;;6136800;23;19957;-70
2022/01/12 05:23:24;;;;;;;;;;;-1.00;99.90;;;;;;6135868;23;19897;-70
2022/01/12 05:25:52;;;;;;;;;;;-1.10;99.90;;;;;;6136612;23;19908;-70
2022/01/12 05:28:18;;;;;;;;;;;-1.00;99.90;;;;;;6135940;23;19896;-69
2022/01/12 05:30:44;;;;;;;;;;;-1.00;99.90;;;;;;6136768;23;19905;-69
2022/01/12 05:33:10;;;;;;;;;;;-1.00;99.90;;;;;;6136445;23;20214;-70
2022/01/12 05:35:36;;;;;;;;;;;-1.10;99.90;;;;;;6136157;23;20166;-68
2022/01/12 05:38:03;;;;;;;;;;;-1.10;99.90;;;;;;6110695;23;20224;-68
2022/01/12 05:40:29;;;;;;;;;;;-1.10;99.90;;;;;;6135543;23;19897;-68
2022/01/12 05:42:58;;;;;;;;;;;-1.10;99.90;;;;;;6136645;23;19901;-68
2022/01/12 05:45:24;;;;;;;;;;;-1.10;99.90;;;;;;6109923;23;20112;-67
2022/01/12 05:50:16;;;;;;;;;;;-1.00;99.90;;;;;;6135297;23;19905;-68
2022/01/12 05:52:42;;;;;;;;;;;-1.10;99.90;;;;;;6136122;23;19921;-68
2022/01/12 05:55:08;;;;;;;;;;;-1.10;99.90;;;;;;6135886;23;19906;-68
2022/01/12 05:57:34;;;;;;;;;;;-1.10;99.90;;;;;;6109413;23;19897;-67
2022/01/12 06:00:01;;;;;;;;;;;-1.10;99.90;;;;;;6136146;23;19897;-67
2022/01/12 06:02:26;;;;;;;;;;;-1.10;99.90;;;;;;6135537;23;19905;-67
2022/01/12 06:04:52;;;;;;;;;;;-1.10;99.90;;;;;;6136130;23;19897;-67
2022/01/12 06:07:17;;;;;;;;;;;-1.00;99.90;;;;;;6135234;23;19897;-68
2022/01/12 06:09:43;;;;;;;;;;;-1.10;99.90;;;;;;6135831;23;19911;-69
2022/01/12 06:12:09;;;;;;;;;;;-1.10;99.90;;;;;;6135770;23;19948;-68
2022/01/12 06:14:35;;;;;;;;;;;-1.10;99.90;;;;;;6108479;23;20127;-69
2022/01/12 06:17:00;;;;;;;;;;;-1.10;99.90;;;;;;6109784;23;20206;-67
2022/01/12 06:19:26;;;;;;;;;;;-1.00;99.90;;;;;;6135589;23;19956;-66
2022/01/12 06:21:52;;;;;;;;;;;-1.00;99.90;;;;;;6110079;23;20124;-67
2022/01/12 06:24:18;;;;;;;;;;;-1.00;99.90;;;;;;6109620;23;19897;-65
2022/01/12 06:26:44;;;;;;;;;;;-0.90;99.90;;;;;;6110059;23;19921;-68
2022/01/12 06:31:46;;;;;;;;;;;-0.90;99.90;;;;;;6135505;23;20280;-68
2022/01/12 06:34:12;;;;;;;;;;;-0.90;99.90;;;;;;6109569;23;20191;-70
2022/01/12 06:36:37;;;;;;;;;;;-0.80;99.90;;;;;;6135204;23;19896;-69
2022/01/12 06:39:05;;;;;;;;;;;-0.80;99.90;;;;;;6135747;23;20092;-70
2022/01/12 06:41:30;;;;;;;;;;;-0.80;99.90;;;;;;6109138;23;19956;-67
2022/01/12 06:43:56;;;;;;;;;;;-0.80;99.90;;;;;;6135449;23;19896;-72
2022/01/12 06:46:26;;;;;;;;;;;-0.70;99.90;;;;;;6135010;23;19900;-76
2022/01/12 06:48:51;;;;;;;;;;;-0.70;99.90;;;;;;6105644;23;19912;-68
2022/01/12 06:51:17;;;;;;;;;;;-0.70;99.90;;;;;;6106285;23;19944;-69
2022/01/12 06:53:42;;;;;;;;;;;-0.80;99.90;;;;;;6104414;23;19900;-69
2022/01/12 06:56:08;;;;;;;;;;;-0.80;99.90;;;;;;6131313;23;19904;-68
2022/01/12 06:58:34;;;;;;;;;;;-0.80;99.90;;;;;;6130067;23;20184;-68
2022/01/12 07:00:59;;;;;;;;;;;-0.80;99.90;;;;;;6130448;23;19897;-69
2022/01/12 07:03:25;;;;;;;;;;;-0.70;99.90;;;;;;6104578;23;19924;-73
2022/01/12 07:05:50;;;;;;;;;;;-0.80;99.90;;;;;;6131230;23;19897;-76
2022/01/12 07:08:16;;;;;;;;;;;-0.80;99.90;;;;;;6130674;23;20203;-69
2022/01/12 07:10:42;;;;;;;;;;;-0.70;99.90;;;;;;6104558;23;20192;-70
2022/01/12 07:13:10;;;;;;;;;;;-0.80;99.90;;;;;;6131080;23;19897;-69
2022/01/12 07:15:37;;;;;;;;;;;-0.70;99.90;;;;;;6130773;23;20103;-70
2022/01/12 07:18:03;;;;;;;;;;;-0.70;99.90;;;;;;6105234;23;20239;-69
2022/01/12 07:20:29;;;;;;;;;;;-0.70;99.90;;;;;;6130442;23;19955;-70
2022/01/12 07:22:54;;;;;;;;;;;-0.60;99.90;;;;;;6105203;23;19901;-69
2022/01/12 07:25:20;;;;;;;;;;;-0.60;99.90;;;;;;6130456;23;19897;-69
2022/01/12 07:27:46;;;;;;;;;;;-0.50;99.90;;;;;;6131066;23;20231;-69
2022/01/12 07:30:12;;;;;;;;;;;-0.50;99.90;;;;;;6105359;23;19920;-70
2022/01/12 07:32:37;;;;;;;;;;;-0.50;99.90;;;;;;6104665;23;20115;-69
2022/01/12 07:35:04;;;;;;;;;;;-0.50;99.90;;;;;;6130748;23;19975;-69
2022/01/12 07:37:29;;;;;;;;;;;-0.40;99.90;;;;;;6130329;23;20135;-70
2022/01/12 07:39:55;;;;;;;;;;;-0.40;99.90;;;;;;6105242;23;19896;-70
2022/01/12 07:42:20;;;;;;;;;;;-0.50;99.90;;;;;;6104472;23;20085;-70
2022/01/12 07:44:46;;;;;;;;;;;-0.50;99.90;;;;;;6132080;23;19904;-70
2022/01/12 07:47:11;;;;;;;;;;;-0.50;99.90;;;;;;6132693;23;19944;-70
2022/01/12 07:49:37;;;;;;;;;;;-0.40;99.90;;;;;;6106441;23;19904;-69
2022/01/12 07:52:05;;;;;;;;;;;-0.40;99.90;;;;;;6132430;23;19904;-70
2022/01/12 07:54:31;;;;;;;;;;;-0.40;99.90;;;;;;6131524;23;19897;-70
2022/01/12 07:56:56;;;;;;;;;;;-0.40;99.90;;;;;;6106823;23;19896;-70
2022/01/12 07:59:22;;;;;;;;;;;-0.30;99.90;;;;;;6106026;23;19896;-70
2022/01/12 08:01:47;;;;;;;;;;;-0.20;99.90;;;;;;6132708;23;19912;-70
2022/01/12 08:04:13;;;;;;;;;;;-0.20;99.90;;;;;;6132469;23;19924;-70
2022/01/12 08:06:38;;;;;;;;;;;-0.20;99.90;;;;;;6131842;23;20172;-70
2022/01/12 08:09:07;;;;;;;;;;;-0.20;99.90;;;;;;6105979;23;19974;-70
2022/01/12 08:11:33;;;;;;;;;;;-0.20;99.90;;;;;;6128845;23;19909;-72
2022/01/12 08:13:58;;;;;;;;;;;-0.20;99.90;;;;;;6106333;23;19897;-71
2022/01/12 08:16:24;;;;;;;;;;;-0.20;99.90;;;;;;6105796;23;19927;-71
2022/01/12 08:18:50;;;;;;;;;;;-0.20;99.90;;;;;;6106381;23;19981;-69
2022/01/12 08:21:15;;;;;;;;;;;-0.20;99.90;;;;;;6132994;23;19904;-70
2022/01/12 08:23:41;;;;;;;;;;;-0.20;99.90;;;;;;6131859;23;20187;-69
2022/01/12 08:26:07;;;;;;;;;;;-0.20;99.90;;;;;;6132892;23;19896;-71
2022/01/12 08:28:32;;;;;;;;;;;-0.20;99.90;;;;;;6106188;23;19900;-70
2022/01/12 08:30:58;;;;;;;;;;;-0.20;99.90;;;;;;6132789;23;20120;-71
2022/01/12 08:33:23;;;;;;;;;;;-0.30;99.90;;;;;;6132028;23;19988;-70
2022/01/12 08:35:49;;;;;;;;;;;-0.20;99.90;;;;;;6132536;23;19897;-70
2022/01/12 08:38:14;;;;;;;;;;;-0.20;99.90;;;;;;6106901;23;19896;-70
2022/01/12 08:40:42;;;;;;;;;;;-0.20;99.90;;;;;;6132262;23;19928;-70
2022/01/12 08:43:07;;;;;;;;;;;-0.20;99.90;;;;;;6132525;23;19897;-70
2022/01/12 08:45:33;;;;;;;;;;;-0.30;99.90;;;;;;6106120;23;19897;-70
2022/01/12 08:47:59;;;;;;;;;;;-0.20;99.90;;;;;;6106717;23;19945;-70
2022/01/12 08:50:24;;;;;;;;;;;-0.20;99.90;;;;;;6131836;23;19904;-71
2022/01/12 08:52:50;;;;;;;;;;;-0.20;99.90;;;;;;6105974;23;19951;-70
2022/01/12 08:55:17;;;;;;;;;;;-0.20;99.90;;;;;;6105989;23;20176;-71
2022/01/12 08:57:43;;;;;;;;;;;-0.10;99.90;;;;;;6131266;23;20096;-72
2022/01/12 09:00:09;;;;;;;;;;;0.00;99.90;;;;;;6132372;23;19896;-70
2022/01/12 09:02:35;;;;;;;;;;;-0.10;99.90;;;;;;6106014;23;19897;-68
2022/01/12 09:05:01;;;;;;;;;;;-0.20;99.90;;;;;;6133904;23;19903;-69
2022/01/12 09:07:26;;;;;;;;;;;-0.20;99.90;;;;;;6131492;23;19897;-68
2022/01/12 09:09:52;;;;;;;;;;;-0.30;99.90;;;;;;6106196;23;19912;-70
2022/01/12 09:12:18;;;;;;;;;;;-0.40;99.90;;;;;;6106327;23;19940;-70
2022/01/12 09:14:44;;;;;;;;;;;-0.40;99.90;;;;;;6132024;23;19912;-69
2022/01/12 09:17:18;;;;;;;;;;;-0.30;99.90;;;;;;6106041;23;19896;-69
2022/01/12 09:19:45;;;;;;;;;;;-0.30;99.90;;;;;;6131523;23;19909;-70
2022/01/12 09:22:10;;;;;;;;;;;-0.40;99.90;;;;;;6131747;23;19896;-70
2022/01/12 09:24:36;;;;;;;;;;;-0.30;99.90;;;;;;6105528;23;20180;-70
2022/01/12 09:27:02;;;;;;;;;;;-0.40;99.90;;;;;;6131824;23;19897;-71
2022/01/12 09:29:27;;;;;;;;;;;-0.10;99.90;;;;;;6131055;23;19920;-71
2022/01/12 09:31:53;;;;;;;;;;;0.00;99.90;;;;;;6132001;23;19897;-70
2022/01/12 09:34:19;;;;;;;;;;;0.00;99.90;;;;;;6131864;23;19896;-71
2022/01/12 09:36:45;;;;;;;;;;;0.00;99.90;;;;;;6131642;23;20074;-71
2022/01/12 09:39:11;;;;;;;;;;;0.00;99.90;;;;;;6132331;23;20129;-70
2022/01/12 09:41:36;;;;;;;;;;;0.00;99.90;;;;;;6131088;23;19932;-70
2022/01/12 09:44:03;;;;;;;;;;;-0.10;99.90;;;;;;6105808;23;19947;-68
2022/01/12 09:46:28;;;;;;;;;;;-0.10;99.90;;;;;;6104925;23;19948;-70
2022/01/12 09:48:55;;;;;;;;;;;0.00;99.90;;;;;;6105505;23;20076;-69
2022/01/12 09:51:21;;;;;;;;;;;0.00;99.90;;;;;;6130826;23;19905;-72
2022/01/12 09:53:50;;;;;;;;;;;0.10;99.90;;;;;;6131161;23;19904;-68
2022/01/12 09:56:17;;;;;;;;;;;0.00;99.90;;;;;;6131941;23;19897;-68
2022/01/12 09:58:43;;;;;;;;;;;0.00;99.90;;;;;;6130850;23;19936;-68
2022/01/12 10:01:09;;;;;;;;;;;0.00;99.90;;;;;;6131681;23;20203;-70
2022/01/12 10:03:35;;;;;;;;;;;0.00;99.90;;;;;;6131040;23;19896;-68
2022/01/12 10:06:12;;;;;;;;;;;0.00;99.90;;;;;;6131592;23;20114;-67
2022/01/12 10:08:37;;;;;;;;;;;-0.10;99.90;;;;;;6104629;23;19905;-67
2022/01/12 10:11:07;;;;;;;;;;;0.00;99.90;;;;;;6105350;23;19947;-70
2022/01/12 10:13:33;;;;;;;;;;;0.00;99.90;;;;;;6104858;23;19901;-77
2022/01/12 10:16:09;;;;;;;;;;;0.00;99.90;;;;;;6131204;23;19897;-72
2022/01/12 10:18:43;;;;;;;;;;;0.00;99.90;;;;;;6131043;23;19897;-70
2022/01/12 10:21:09;;;;;;;;;;;0.00;99.90;;;;;;6131459;23;19965;-69
2022/01/12 10:23:38;;;;;;;;;;;0.00;99.90;;;;;;6130637;23;20040;-69
2022/01/12 10:26:04;;;;;;;;;;;0.00;99.90;;;;;;6131533;23;19900;-74
2022/01/12 10:28:29;;;;;;;;;;;0.20;99.90;;;;;;6104709;23;20223;-68
2022/01/12 10:31:02;;;;;;;;;;;0.00;99.90;;;;;;6131328;23;19927;-71
2022/01/12 10:33:29;;;;;;;;;;;0.10;99.90;;;;;;6130648;23;19944;-68
2022/01/12 10:35:59;;;;;;;;;;;0.10;99.90;;;;;;6131612;23;19904;-69
2022/01/12 10:38:25;;;;;;;;;;;0.10;99.90;;;;;;6104994;23;19896;-68
2022/01/12 10:40:51;;;;;;;;;;;0.10;99.90;;;;;;6131207;23;19896;-69
2022/01/12 10:43:34;;;;;;;;;;;0.10;99.90;;;;;;6105461;23;20176;-68
2022/01/12 10:46:01;;;;;;;;;;;0.10;99.90;;;;;;6131108;23;19904;-67
2022/01/12 10:48:46;;;;;;;;;;;0.10;99.90;;;;;;6130917;23;19904;-68
2022/01/12 10:51:19;;;;;;;;;;;0.20;99.90;;;;;;6130820;23;19944;-67
2022/01/12 10:53:46;;;;;;;;;;;0.10;99.90;;;;;;6105267;23;19927;-67
2022/01/12 10:56:13;;;;;;;;;;;0.10;99.90;;;;;;6131024;23;19907;-66
2022/01/12 10:58:48;;;;;;;;;;;0.20;99.90;;;;;;6104570;23;19897;-68
2022/01/12 11:01:16;;;;;;;;;;;0.20;99.90;;;;;;6105364;23;19924;-69
2022/01/12 11:03:41;;;;;;;;;;;0.20;99.90;;;;;;6130049;23;20202;-68
2022/01/12 11:06:08;;;;;;;;;;;0.20;99.90;;;;;;6130750;23;19897;-68
2022/01/12 11:08:34;;;;;;;;;;;0.20;99.90;;;;;;6130731;23;19897;-69
2022/01/12 11:11:00;;;;;;;;;;;0.20;99.90;;;;;;6130691;23;19924;-69
2022/01/12 11:13:26;;;;;;;;;;;0.30;99.90;;;;;;6130443;23;19897;-69
2022/01/12 11:15:53;;;;;;;;;;;0.30;99.90;;;;;;6130965;23;19960;-69
2022/01/12 11:18:24;;;;;;;;;;;0.40;99.90;;;;;;6130897;23;20123;-70
2022/01/12 11:20:50;;;;;;;;;;;0.40;99.90;;;;;;6146865;23;19909;-70
2022/01/12 11:23:17;;;;;;;;;;;0.40;99.90;;;;;;6162540;23;19934;-69
2022/01/12 11:25:43;;;;;;;;;;;0.50;99.90;;;;;;6160080;23;19940;-68
2022/01/12 11:30:56;;;;;;;;;;;0.40;99.90;;;;;;6162648;23;19927;-69
2022/01/12 11:33:33;;;;;;;;;;;0.50;99.90;;;;;;6162177;23;19896;-70
2022/01/12 11:36:01;;;;;;;;;;;0.50;99.90;;;;;;6162368;23;19944;-68
2022/01/12 11:38:34;;;;;;;;;;;0.50;99.90;;;;;;6161533;23;19981;-69
2022/01/12 11:41:19;;;;;;;;;;;0.50;99.90;;;;;;6160824;23;19943;-68
2022/01/12 11:43:50;;;;;;;;;;;0.60;99.90;;;;;;6161988;23;19942;-69
2022/01/12 11:46:20;;;;;;;;;;;0.60;99.90;;;;;;6162742;23;19897;-83
2022/01/12 11:48:47;;;;;;;;;;;0.60;99.90;;;;;;6160601;23;20002;-79
2022/01/12 11:51:13;;;;;;;;;;;0.70;99.90;;;;;;6160813;23;19905;-66
2022/01/12 11:53:50;;;;;;;;;;;0.70;99.90;;;;;;6161587;23;20071;-69
2022/01/12 11:56:20;;;;;;;;;;;0.70;99.90;;;;;;6160800;23;19912;-69
2022/01/12 11:58:53;;;;;;;;;;;0.70;99.90;;;;;;6162025;23;19896;-69
2022/01/12 12:01:19;;;;;;;;;;;0.60;99.90;;;;;;6162851;23;20069;-69
2022/01/12 12:03:57;;;;;;;;;;;0.70;99.90;;;;;;6160171;23;20109;-70
2022/01/12 12:06:23;;;;;;;;;;;0.70;99.90;;;;;;6160166;23;19900;-69
2022/01/12 12:09:01;;;;;;;;;;;0.80;99.90;;;;;;6160356;23;19919;-69
2022/01/12 12:11:28;;;;;;;;;;;0.80;99.90;;;;;;6159591;23;19926;-69
2022/01/12 12:13:58;;;;;;;;;;;0.80;99.90;;;;;;6161828;23;19950;-69
2022/01/12 12:16:24;;;;;;;;;;;0.80;99.90;;;;;;6161070;23;19897;-69
2022/01/12 12:18:50;;;;;;;;;;;0.80;99.90;;;;;;6135149;23;19896;-70
2022/01/12 12:21:15;;;;;;;;;;;0.70;99.90;;;;;;6160377;23;19950;-69
2022/01/12 12:23:41;;;;;;;;;;;0.70;99.90;;;;;;6159283;23;20116;-70
2022/01/12 12:26:08;;;;;;;;;;;0.80;99.90;;;;;;6161729;23;19896;-70
2022/01/12 12:28:34;;;;;;;;;;;0.80;99.90;;;;;;6160977;23;19959;-70
2022/01/12 12:30:59;;;;;;;;;;;0.90;99.90;;;;;;6160850;23;19904;-70
2022/01/12 12:33:25;;;;;;;;;;;0.90;99.90;;;;;;6160963;23;19939;-69
2022/01/12 12:35:50;;;;;;;;;;;0.90;99.90;;;;;;6161356;23;19935;-70
2022/01/12 12:38:17;;;;;;;;;;;0.90;99.90;;;;;;6161723;23;19929;-71
2022/01/12 12:40:55;;;;;;;;;;;0.90;99.90;;;;;;6160788;23;19897;-71
2022/01/12 12:43:27;;;;;;;;;;;0.80;99.90;;;;;;6159771;23;19897;-70
2022/01/12 12:45:54;;;;;;;;;;;0.80;99.90;;;;;;6161516;23;19896;-70
2022/01/12 12:48:21;;;;;;;;;;;0.70;99.90;;;;;;6159248;23;20176;-69
2022/01/12 12:50:47;;;;;;;;;;;0.70;99.90;;;;;;6159424;23;19931;-68
2022/01/12 12:53:14;;;;;;;;;;;0.70;99.90;;;;;;6160154;23;19903;-70
2022/01/12 12:55:41;;;;;;;;;;;0.70;99.90;;;;;;6158480;23;19897;-70
2022/01/12 12:58:06;;;;;;;;;;;0.70;99.90;;;;;;6159471;23;19896;-72
2022/01/12 13:00:33;;;;;;;;;;;0.80;99.90;;;;;;6158851;23;19919;-70
2022/01/12 13:03:00;;;;;;;;;;;0.80;99.90;;;;;;6160385;23;20029;-68
2022/01/12 13:05:28;;;;;;;;;;;0.80;99.90;;;;;;6134381;23;19944;-68
2022/01/12 13:07:54;;;;;;;;;;;0.70;99.90;;;;;;6159224;23;19904;-68
2022/01/12 13:10:21;;;;;;;;;;;0.80;99.90;;;;;;6158889;23;19931;-69
2022/01/12 13:12:48;;;;;;;;;;;0.80;99.90;;;;;;6160061;23;19897;-70
2022/01/12 13:15:25;;;;;;;;;;;0.80;99.90;;;;;;6159033;23;19948;-69
2022/01/12 13:17:58;;;;;;;;;;;0.80;99.90;;;;;;6159524;23;19901;-69
2022/01/12 13:22:51;;;;;;;;;;;0.60;99.90;;;;;;6160661;23;19944;-67
2022/01/12 13:25:18;;;;;;;;;;;0.50;99.90;;;;;;6161079;23;19896;-67
2022/01/12 13:27:47;;;;;;;;;;;0.50;99.90;;;;;;6158545;23;19904;-69
2022/01/12 13:30:24;;;;;;;;;;;0.50;99.90;;;;;;6160813;23;19905;-71
2022/01/12 13:32:50;;;;;;;;;;;0.40;99.90;;;;;;6158567;23;19897;-69
2022/01/12 13:35:17;;;;;;;;;;;0.40;99.90;;;;;;6160585;23;19897;-67
2022/01/12 13:37:52;;;;;;;;;;;0.40;99.90;;;;;;6159597;23;19973;-67
2022/01/12 13:40:18;;;;;;;;;;;0.40;99.90;;;;;;6163622;23;20144;-67
2022/01/12 13:42:47;;;;;;;;;;;0.50;99.90;;;;;;6156699;23;19907;-69
2022/01/12 13:45:16;;;;;;;;;;;0.60;99.90;;;;;;6160677;23;19896;-66
2022/01/12 13:47:48;;;;;;;;;;;0.70;99.90;;;;;;6157970;23;20093;-66
2022/01/12 13:50:14;;;;;;;;;;;0.60;99.90;;;;;;6160046;23;20216;-69
2022/01/12 13:52:41;;;;;;;;;;;0.60;99.90;;;;;;6159429;23;19963;-66
2022/01/12 13:55:10;;;;;;;;;;;0.70;99.90;;;;;;6158983;23;20174;-68
2022/01/12 13:57:36;;;;;;;;;;;0.70;99.90;;;;;;6158591;23;19896;-68
2022/01/12 14:00:05;;;;;;;;;;;0.70;99.90;;;;;;6159998;23;19913;-67
2022/01/12 14:02:31;;;;;;;;;;;0.80;99.90;;;;;;6157803;23;20192;-68
2022/01/12 14:05:07;;;;;;;;;;;0.80;99.90;;;;;;6158977;23;19920;-67
2022/01/12 14:07:38;;;;;;;;;;;0.70;99.90;;;;;;6157393;23;19905;-67
2022/01/12 14:10:05;;;;;;;;;;;0.60;99.90;;;;;;6158571;23;19911;-67
2022/01/12 14:12:31;;;;;;;;;;;0.60;99.90;;;;;;6158979;23;19901;-68
2022/01/12 14:14:58;;;;;;;;;;;0.60;99.90;;;;;;6159049;23;19915;-66
2022/01/12 14:17:27;;;;;;;;;;;0.60;99.90;;;;;;6159963;23;19951;-65
2022/01/12 14:19:57;;;;;;;;;;;0.60;99.90;;;;;;6149130;23;19908;-72
2022/01/12 14:22:23;;;;;;;;;;;0.60;99.90;;;;;;6103972;23;20188;-67
2022/01/12 14:24:59;;;;;;;;;;;0.50;99.90;;;;;;6130257;23;19924;-67
2022/01/12 14:27:36;;;;;;;;;;;0.50;99.90;;;;;;6129890;23;19903;-67
2022/01/12 14:30:01;;;;;;;;;;;0.50;99.90;;;;;;6104548;23;19901;-67
2022/01/12 14:32:35;;;;;;;;;;;0.50;99.90;;;;;;6103673;23;19908;-68
2022/01/12 14:35:00;;;;;;;;;;;0.50;99.90;;;;;;6104657;23;19944;-68
2022/01/12 14:37:26;;;;;;;;;;;0.50;99.90;;;;;;6129779;23;19904;-68
2022/01/12 14:39:52;;;;;;;;;;;0.50;99.90;;;;;;6130497;23;20096;-67
2022/01/12 14:42:17;;;;;;;;;;;0.50;99.90;;;;;;6103927;23;19897;-67
2022/01/12 14:44:43;;;;;;;;;;;0.50;99.90;;;;;;6130257;23;20168;-69
2022/01/12 14:47:08;;;;;;;;;;;0.50;99.90;;;;;;6104708;23;19896;-68
2022/01/12 14:49:34;;;;;;;;;;;0.50;99.90;;;;;;6104042;23;19904;-67
2022/01/12 14:52:00;;;;;;;;;;;0.50;99.90;;;;;;6104565;23;20117;-67
2022/01/12 14:54:26;;;;;;;;;;;0.50;99.90;;;;;;6103521;23;19897;-66
2022/01/12 14:56:51;;;;;;;;;;;0.40;99.90;;;;;;6129806;23;20289;-68
2022/01/12 14:59:17;;;;;;;;;;;0.40;99.90;;;;;;6104597;23;19897;-66
2022/01/12 15:01:42;;;;;;;;;;;0.40;99.90;;;;;;6103358;23;20179;-68
2022/01/12 15:04:08;;;;;;;;;;;0.40;99.90;;;;;;6130638;23;19900;-67
2022/01/12 15:06:33;;;;;;;;;;;0.40;99.90;;;;;;6103579;23;19904;-67
2022/01/12 15:09:00;;;;;;;;;;;0.30;99.90;;;;;;6104002;23;19897;-69
2022/01/12 15:11:25;;;;;;;;;;;0.40;99.90;;;;;;6103874;23;19990;-68
2022/01/12 15:16:19;;;;;;;;;;;0.40;99.90;;;;;;6130632;23;19908;-68
2022/01/12 15:18:45;;;;;;;;;;;0.40;99.90;;;;;;6129596;23;19897;-68
2022/01/12 15:21:11;;;;;;;;;;;0.40;99.90;;;;;;6129611;23;20251;-68
2022/01/12 15:23:36;;;;;;;;;;;0.50;99.90;;;;;;6103848;23;19930;-68
2022/01/12 15:26:02;;;;;;;;;;;0.50;99.90;;;;;;6103976;23;19920;-68
2022/01/12 15:28:28;;;;;;;;;;;0.50;99.90;;;;;;6103727;23;20164;-68
2022/01/12 15:30:54;;;;;;;;;;;0.50;99.90;;;;;;6104012;23;19964;-69
2022/01/12 15:33:19;;;;;;;;;;;0.50;99.90;;;;;;6129906;23;19912;-69
2022/01/12 15:35:45;;;;;;;;;;;0.50;99.90;;;;;;6129372;23;19971;-69
2022/01/12 15:38:11;;;;;;;;;;;0.50;99.90;;;;;;6130237;23;19901;-68
2022/01/12 15:40:38;;;;;;;;;;;0.50;99.90;;;;;;6129594;23;19904;-68
2022/01/12 15:43:03;;;;;;;;;;;0.50;99.90;;;;;;6103739;23;19897;-68
2022/01/12 15:45:30;;;;;;;;;;;0.50;99.90;;;;;;6129335;23;20210;-69
2022/01/12 15:47:55;;;;;;;;;;;0.60;99.90;;;;;;6104663;23;19897;-68
2022/01/12 15:50:21;;;;;;;;;;;0.50;99.90;;;;;;6104405;23;19924;-68
2022/01/12 15:52:47;;;;;;;;;;;0.50;99.90;;;;;;6129167;23;20180;-68
2022/01/12 15:55:13;;;;;;;;;;;0.50;99.90;;;;;;6129938;23;20188;-69
2022/01/12 15:57:38;;;;;;;;;;;0.40;99.90;;;;;;6129292;23;19992;-69